»·PEaware :: N583SG KBFI-KSLC

N583SG :: KBFI-KSLC

FLIGHT INFORMATION

Flight Status: Arrived
Operator: Privately registered:
United States
More flights under this callsign
Pilot: Scott G. (88)
Aircraft: BOEING 737-200
(B732)
More flights by this aircraft type
Origin: KBFI Boeing Field/King Co Intl
United States
Destination: KSLC Salt Lake City Intl
United States
More flights between these airports :: More routes between these airports
Route: +KENT8 YKM J20 DNJ PIH BEARR5
File this flight plan on PilotEdge
Remarks:
Altitude:
(Current/Filed)
33,000ft
Speed:
(Current/Filed)
420kts
Departed: 20-Jan-18 12:09 PM
Arrived: 20-Jan-18 02:07 PM
Distance/Time
Traveled:
601nm/1:58
Distance/Time
To Go:
Arrived

Flight Plot

Page will automatically refresh every two minutes.

Flight plan parsing failed; only flown route is shown


Map Options




Map Legend


Flown Route
Filed Route
Departure Airport
Arrival Airport
Navaid (VOR, NDB)
Fix

Horizontal Profiles

Position Reports

Time Latitude Longitude Heading Altitude Ground
Speed
20-Jan-18 11:40 47.537627 -122.311927 240 29ft 0kts
20-Jan-18 11:41 47.537627 -122.311927 240 29ft 0kts
20-Jan-18 11:42 47.537627 -122.311927 240 29ft 0kts
20-Jan-18 11:43 47.537627 -122.311927 240 29ft 0kts
20-Jan-18 11:44 47.537627 -122.311927 240 29ft 0kts
20-Jan-18 11:45 47.537627 -122.311927 240 29ft 0kts
20-Jan-18 11:46 47.537627 -122.311927 240 29ft 0kts
20-Jan-18 11:47 47.537627 -122.311927 240 29ft 0kts
20-Jan-18 11:48 47.537627 -122.311927 240 29ft 0kts
20-Jan-18 11:49 47.537627 -122.311927 240 29ft 0kts
20-Jan-18 11:50 47.537627 -122.311927 240 29ft 0kts
20-Jan-18 11:51 47.537627 -122.311927 240 29ft 0kts
20-Jan-18 11:52 47.537627 -122.311927 240 29ft 0kts
20-Jan-18 11:53 47.537627 -122.311927 240 29ft 0kts
20-Jan-18 11:54 47.537627 -122.311927 240 29ft 0kts
20-Jan-18 11:55 47.537627 -122.311927 240 29ft 0kts
20-Jan-18 11:56 47.537627 -122.311927 240 29ft 0kts
20-Jan-18 11:57 47.537627 -122.311927 240 29ft 0kts
20-Jan-18 11:58 47.537627 -122.311927 240 29ft 0kts
20-Jan-18 11:59 47.537627 -122.311927 240 29ft 0kts
20-Jan-18 12:00 47.537627 -122.311927 240 29ft 0kts
20-Jan-18 12:01 47.537627 -122.311927 240 29ft 0kts
20-Jan-18 12:02 47.537627 -122.311927 240 29ft 0kts
20-Jan-18 12:03 47.537627 -122.311927 240 29ft 0kts
20-Jan-18 12:04 47.537627 -122.311927 240 29ft 0kts
20-Jan-18 12:05 47.537627 -122.311927 240 29ft 0kts
20-Jan-18 12:06 47.537627 -122.311927 240 29ft 0kts
20-Jan-18 12:07 47.537627 -122.311927 240 29ft 0kts
20-Jan-18 12:08 47.537627 -122.311927 240 29ft 0kts
20-Jan-18 12:09 47.537627 -122.311927 240 29ft 0kts
20-Jan-18 12:10 47.537711 -122.312883 310 29ft 14kts
20-Jan-18 12:11 47.539851 -122.312305 61 29ft 0kts
20-Jan-18 12:12 47.539851 -122.312305 61 29ft 0kts
20-Jan-18 12:13 47.539851 -122.312305 61 29ft 0kts
20-Jan-18 12:14 47.539366 -122.310390 150 29ft 11kts
20-Jan-18 12:15 47.507036 -122.283325 150 1883ft 197kts
20-Jan-18 12:16 47.457355 -122.239815 146 1850ft 197kts
20-Jan-18 12:17 47.412004 -122.197035 150 2965ft 211kts
20-Jan-18 12:18 47.372082 -122.147756 140 6438ft 213kts
20-Jan-18 12:19 47.321033 -122.086132 144 9558ft 248kts
20-Jan-18 12:20 47.257602 -122.011931 142 12065ft 297kts
20-Jan-18 12:21 47.193348 -121.930879 126 14948ft 315kts
20-Jan-18 12:22 47.146595 -121.818911 122 17475ft 330kts
20-Jan-18 12:23 47.102579 -121.711535 122 19527ft 343kts
20-Jan-18 12:24 47.052365 -121.589715 122 21523ft 355kts
20-Jan-18 12:25 47.000928 -121.465195 122 23377ft 364kts
20-Jan-18 12:26 46.949889 -121.341792 123 24441ft 389kts
20-Jan-18 12:27 46.892133 -121.203564 123 25510ft 408kts
20-Jan-18 12:28 46.831566 -121.060963 122 26807ft 416kts
20-Jan-18 12:29 46.775131 -120.926912 122 28083ft 416kts
20-Jan-18 12:30 46.714573 -120.783768 122 29372ft 415kts
20-Jan-18 12:31 46.654217 -120.641736 122 30520ft 414kts
20-Jan-18 12:32 46.592974 -120.498029 122 31202ft 424kts
20-Jan-18 12:33 46.534591 -120.377056 130 31819ft 428kts
20-Jan-18 12:34 46.458541 -120.244055 130 32525ft 432kts
20-Jan-18 12:35 46.382538 -120.108972 130 33135ft 437kts
20-Jan-18 12:36 46.305544 -119.972518 130 33128ft 440kts
20-Jan-18 12:37 46.226707 -119.837073 132 33135ft 442kts
20-Jan-18 12:38 46.146171 -119.703394 132 33144ft 442kts
20-Jan-18 12:39 46.065652 -119.569941 131 33144ft 443kts
20-Jan-18 12:40 45.984814 -119.435807 131 33158ft 444kts
20-Jan-18 12:41 45.904761 -119.302881 132 33162ft 445kts
20-Jan-18 12:42 45.828539 -119.164692 130 33160ft 444kts
20-Jan-18 12:43 45.750423 -119.028694 130 33154ft 441kts
20-Jan-18 12:44 45.676122 -118.890573 112 33149ft 440kts
20-Jan-18 12:45 45.630308 -118.730233 117 33148ft 436kts
20-Jan-18 12:46 45.574966 -118.576800 117 33147ft 434kts
20-Jan-18 12:47 45.521427 -118.423229 117 33153ft 433kts
20-Jan-18 12:48 45.468947 -118.272985 118 33153ft 431kts
20-Jan-18 12:49 45.415536 -118.120565 118 33154ft 430kts
20-Jan-18 12:50 45.362956 -117.970889 118 33154ft 429kts
20-Jan-18 12:51 45.308965 -117.818111 117 33155ft 428kts
20-Jan-18 12:52 45.255259 -117.667086 118 33156ft 428kts
20-Jan-18 12:53 45.201724 -117.516612 117 33147ft 429kts
20-Jan-18 12:54 45.146453 -117.367314 117 33141ft 430kts
20-Jan-18 12:55 45.095287 -117.214462 116 33136ft 430kts
20-Jan-18 12:56 45.045776 -117.060409 115 33126ft 431kts
20-Jan-18 12:57 44.996286 -116.905986 116 33079ft 431kts
20-Jan-18 12:58 44.946783 -116.752494 117 33062ft 430kts
20-Jan-18 12:59 44.896985 -116.599055 117 33063ft 429kts
20-Jan-18 13:00 44.845900 -116.447252 116 33067ft 429kts
20-Jan-18 13:01 44.796074 -116.294978 118 33063ft 429kts
20-Jan-18 13:02 44.740992 -116.147498 130 33085ft 422kts
20-Jan-18 13:03 44.671788 -116.014394 128 33064ft 423kts
20-Jan-18 13:04 44.604391 -115.880790 128 33060ft 413kts
20-Jan-18 13:05 44.539392 -115.751654 128 33061ft 402kts
20-Jan-18 13:06 44.475704 -115.625517 128 33066ft 392kts
20-Jan-18 13:07 44.413358 -115.502563 128 33062ft 385kts
20-Jan-18 13:08 44.351789 -115.381648 128 33064ft 378kts
20-Jan-18 13:09 44.291454 -115.264246 129 33067ft 372kts
20-Jan-18 13:10 44.231641 -115.147955 130 33067ft 366kts
20-Jan-18 13:11 44.172792 -115.033719 131 33070ft 363kts
20-Jan-18 13:12 44.113463 -114.919322 132 33068ft 369kts
20-Jan-18 13:13 44.052713 -114.802534 132 33050ft 376kts
20-Jan-18 13:14 43.992559 -114.682308 130 33037ft 382kts
20-Jan-18 13:15 43.929480 -114.563260 136 33031ft 381kts
20-Jan-18 13:16 43.865858 -114.444263 132 33042ft 388kts
20-Jan-18 13:17 43.800983 -114.324594 133 33035ft 389kts
20-Jan-18 13:18 43.736236 -114.205528 131 33015ft 387kts
20-Jan-18 13:19 43.671636 -114.086682 131 33017ft 385kts
20-Jan-18 13:20 43.607412 -113.968929 131 33018ft 384kts
20-Jan-18 13:21 43.543076 -113.851448 131 33018ft 384kts
20-Jan-18 13:22 43.489657 -113.754283 131 33018ft 383kts
20-Jan-18 13:23 43.414646 -113.618444 131 33019ft 383kts
20-Jan-18 13:24 43.361016 -113.521755 131 33019ft 382kts
20-Jan-18 13:25 43.285641 -113.386440 131 33027ft 382kts
20-Jan-18 13:26 43.231973 -113.290218 132 33024ft 381kts
20-Jan-18 13:27 43.167616 -113.175090 132 33024ft 380kts
20-Jan-18 13:28 43.103236 -113.060973 132 33025ft 380kts
20-Jan-18 13:29 43.038748 -112.946632 134 33024ft 379kts
20-Jan-18 13:30 42.974855 -112.833852 137 33024ft 378kts
20-Jan-18 13:31 42.919579 -112.736834 138 33017ft 376kts
20-Jan-18 13:32 42.851446 -112.633884 158 33067ft 348kts
20-Jan-18 13:33 42.768910 -112.563697 157 32407ft 367kts
20-Jan-18 13:34 42.683696 -112.487716 157 31706ft 359kts
20-Jan-18 13:35 42.599392 -112.413935 157 31038ft 360kts
20-Jan-18 13:36 42.515042 -112.339851 159 31037ft 362kts
20-Jan-18 13:37 42.426446 -112.335776 206 31019ft 312kts
20-Jan-18 13:38 42.348643 -112.381211 204 31212ft 308kts
20-Jan-18 13:39 42.266900 -112.419195 205 30987ft 312kts
20-Jan-18 13:40 42.186616 -112.457458 207 29958ft 308kts
20-Jan-18 13:41 42.104592 -112.491156 184 28454ft 334kts
20-Jan-18 13:42 42.014962 -112.435557 166 27025ft 358kts
20-Jan-18 13:43 41.926506 -112.448453 200 25622ft 326kts
20-Jan-18 13:44 41.835930 -112.464323 193 23708ft 336kts
20-Jan-18 13:45 41.742260 -112.471789 190 22396ft 337kts
20-Jan-18 13:46 41.648800 -112.476910 188 21025ft 336kts
20-Jan-18 13:47 41.555944 -112.481382 186 19688ft 332kts
20-Jan-18 13:48 41.465046 -112.474680 157 18337ft 332kts
20-Jan-18 13:49 41.391788 -112.404774 140 17194ft 321kts
20-Jan-18 13:50 41.322435 -112.332735 140 16939ft 316kts
20-Jan-18 13:51 41.252918 -112.260519 140 16982ft 319kts
20-Jan-18 13:52 41.173875 -112.208390 157 16984ft 324kts
20-Jan-18 13:53 41.093532 -112.157897 152 16449ft 316kts
20-Jan-18 13:54 41.018961 -112.105232 157 15452ft 293kts
20-Jan-18 13:55 40.941127 -112.090853 175 14290ft 275kts
20-Jan-18 13:56 40.870295 -112.082071 175 13178ft 258kts
20-Jan-18 13:57 40.800022 -112.074434 175 11999ft 250kts
20-Jan-18 13:58 40.731503 -112.067404 175 10701ft 245kts
20-Jan-18 13:59 40.664091 -112.060132 175 9037ft 240kts
20-Jan-18 14:00 40.601217 -112.053012 175 8358ft 223kts
20-Jan-18 14:01 40.542951 -112.045998 175 7999ft 192kts
20-Jan-18 14:02 40.511292 -112.006206 82 8044ft 194kts
20-Jan-18 14:03 40.527934 -111.943315 18 8019ft 181kts
20-Jan-18 14:04 40.573054 -111.952283 342 7439ft 155kts
20-Jan-18 14:05 40.615204 -111.956796 357 6507ft 144kts
20-Jan-18 14:06 40.650935 -111.958828 351 6801ft 113kts
20-Jan-18 14:07 40.690470 -111.962112 350 6954ft 137kts
20-Jan-18 14:08 40.707581 -111.965050 352 6609ft 141kts
20-Jan-18 14:09 40.716587 -111.966268 351 6202ft 140kts
20-Jan-18 14:10 40.722606 -111.967180 354 5697ft 147kts
20-Jan-18 14:11 40.731788 -111.966221 9 5112ft 139kts
20-Jan-18 14:12 40.764928 -111.961811 359 4299ft 118kts
20-Jan-18 14:13 40.790889 -111.962104 2 4236ft 16kts
20-Jan-18 14:14 40.791463 -111.960639 90 4236ft 0kts
20-Jan-18 14:15 40.791463 -111.960639 90 4236ft 0kts
20-Jan-18 14:16 40.791463 -111.960639 90 4236ft 0kts
20-Jan-18 14:17 40.791037 -111.960050 167 4236ft 16kts
20-Jan-18 14:18 40.780653 -111.960021 179 4236ft 44kts
20-Jan-18 14:19 40.776120 -111.959303 89 4236ft 12kts
20-Jan-18 14:20 40.777193 -111.958411 357 4236ft 0kts
20-Jan-18 14:21 40.777193 -111.958411 357 4236ft 0kts
20-Jan-18 14:22 40.777193 -111.958411 357 4236ft 0kts
20-Jan-18 14:23 40.777193 -111.958411 357 4236ft 0kts
20-Jan-18 14:24 40.777193 -111.958411 357 4236ft 0kts

Navigation Log

Ident Type
Flight plan parsing failed, navigation log unavailable